createdAt,value
2018-08-09T00:00:49.194Z,25.20
2018-08-09T00:03:18.491Z,25.20
2018-08-09T00:05:47.753Z,25.20
2018-08-09T00:08:17.009Z,25.20
2018-08-09T00:10:46.265Z,25.10
2018-08-09T00:13:15.522Z,25.10
2018-08-09T00:15:44.731Z,25.00
2018-08-09T00:18:14.025Z,24.90
2018-08-09T00:20:43.273Z,25.00
2018-08-09T00:23:12.576Z,25.00
2018-08-09T00:25:41.834Z,25.00
2018-08-09T00:28:11.090Z,24.90
2018-08-09T00:30:40.293Z,24.80
2018-08-09T00:33:09.489Z,24.80
2018-08-09T00:35:38.563Z,24.80
2018-08-09T00:38:07.587Z,24.80
2018-08-09T00:40:36.551Z,24.80
2018-08-09T00:43:05.949Z,24.70
2018-08-09T00:45:35.228Z,24.80
2018-08-09T00:48:04.436Z,24.80
2018-08-09T00:50:33.445Z,24.80
2018-08-09T00:53:02.718Z,24.70
2018-08-09T00:55:31.967Z,24.60
2018-08-09T00:58:01.261Z,24.60
2018-08-09T01:00:30.270Z,24.50
2018-08-09T01:02:59.552Z,24.50
2018-08-09T01:05:28.815Z,24.40
2018-08-09T01:07:58.040Z,24.40
2018-08-09T01:10:27.270Z,24.30
2018-08-09T01:12:56.453Z,24.30
2018-08-09T01:15:25.663Z,24.30
2018-08-09T01:17:54.945Z,24.20
2018-08-09T01:20:24.203Z,24.20
2018-08-09T01:22:53.215Z,24.20
2018-08-09T01:25:22.408Z,24.10
2018-08-09T01:27:51.687Z,24.20
2018-08-09T01:30:20.884Z,24.10
2018-08-09T01:32:50.244Z,24.10
2018-08-09T01:35:19.236Z,24.10
2018-08-09T01:37:48.454Z,24.10
2018-08-09T01:40:17.714Z,24.00
2018-08-09T01:43:04.058Z,23.90
2018-08-09T01:45:33.318Z,24.00
2018-08-09T01:48:02.617Z,23.90
2018-08-09T01:50:31.610Z,24.00
2018-08-09T01:53:00.846Z,23.90
2018-08-09T01:55:30.403Z,23.90
2018-08-09T01:57:59.595Z,23.90
2018-08-09T02:00:28.788Z,23.80
2018-08-09T02:02:58.033Z,23.70
2018-08-09T02:05:27.343Z,23.80
2018-08-09T02:07:56.547Z,23.70
2018-08-09T02:10:25.786Z,23.70
2018-08-09T02:13:01.848Z,23.70
2018-08-09T02:15:31.133Z,23.70
2018-08-09T02:18:00.940Z,23.60
2018-08-09T02:20:30.274Z,23.60
2018-08-09T02:23:01.069Z,23.60
2018-08-09T02:25:30.373Z,23.60
2018-08-09T02:27:59.713Z,23.60
2018-08-09T02:30:28.937Z,23.50
2018-08-09T02:32:58.318Z,23.40
2018-08-09T02:35:27.602Z,23.50
2018-08-09T02:38:04.812Z,23.50
2018-08-09T02:40:34.087Z,23.30
2018-08-09T02:43:03.581Z,23.40
2018-08-09T02:48:08.404Z,23.40
2018-08-09T02:50:38.117Z,23.30
2018-08-09T02:53:07.402Z,23.30
2018-08-09T02:55:37.289Z,23.30
2018-08-09T02:58:14.108Z,23.40
2018-08-09T03:00:43.447Z,23.20
2018-08-09T03:03:12.720Z,23.20
2018-08-09T03:05:41.973Z,23.20
2018-08-09T03:08:13.493Z,23.20
2018-08-09T03:10:42.476Z,23.30
2018-08-09T03:13:11.689Z,23.30
2018-08-09T03:15:40.897Z,23.10
2018-08-09T03:18:10.149Z,23.10
2018-08-09T03:20:39.423Z,23.20
2018-08-09T03:23:08.616Z,23.10
2018-08-09T03:25:37.857Z,23.20
2018-08-09T03:28:07.095Z,23.00
2018-08-09T03:30:39.262Z,23.10
2018-08-09T03:33:08.485Z,23.20
2018-08-09T03:35:37.641Z,23.20
2018-08-09T03:38:06.904Z,23.20
2018-08-09T03:40:36.115Z,23.10
2018-08-09T03:43:05.803Z,23.10
2018-08-09T03:45:34.985Z,23.20
2018-08-09T03:48:04.820Z,23.10
2018-08-09T03:50:35.319Z,23.10
2018-08-09T03:53:04.368Z,23.10
2018-08-09T03:55:44.686Z,23.10
2018-08-09T03:58:13.977Z,23.10
2018-08-09T04:03:19.369Z,23.10
2018-08-09T04:05:48.584Z,23.10
2018-08-09T04:08:34.222Z,23.10
2018-08-09T04:11:14.379Z,23.10
2018-08-09T04:13:43.396Z,23.10
2018-08-09T04:18:48.951Z,23.10
2018-08-09T04:21:18.081Z,23.10
2018-08-09T04:23:47.443Z,23.00
2018-08-09T04:26:16.627Z,23.10
2018-08-09T04:28:45.644Z,23.10
2018-08-09T04:31:14.893Z,23.00
2018-08-09T04:33:44.205Z,23.00
2018-08-09T04:36:13.213Z,23.20
2018-08-09T04:38:42.527Z,23.20
2018-08-09T04:41:11.789Z,23.10
2018-08-09T04:43:41.039Z,23.20
2018-08-09T04:46:21.197Z,23.20
2018-08-09T04:48:50.401Z,23.20
2018-08-09T04:51:19.667Z,23.20
2018-08-09T04:53:49.025Z,23.20
2018-08-09T04:56:29.401Z,23.30
2018-08-09T04:58:58.584Z,23.40
2018-08-09T05:01:31.193Z,23.40
2018-08-09T05:04:01.415Z,23.50
2018-08-09T05:06:32.984Z,23.50
2018-08-09T05:09:02.221Z,23.60
2018-08-09T05:11:31.211Z,23.50
2018-08-09T05:14:00.449Z,23.40
2018-08-09T05:16:33.195Z,23.50
2018-08-09T05:19:02.543Z,23.50
2018-08-09T05:21:33.245Z,23.50
2018-08-09T05:24:02.508Z,23.60
2018-08-09T05:26:46.708Z,23.70
2018-08-09T05:29:15.893Z,23.90
2018-08-09T05:31:49.292Z,23.90
2018-08-09T05:34:18.612Z,24.00
2018-08-09T05:36:47.969Z,24.10
2018-08-09T05:39:17.289Z,23.90
2018-08-09T05:41:46.611Z,24.10
2018-08-09T05:44:15.830Z,24.20
2018-08-09T05:46:45.455Z,24.20
2018-08-09T05:49:14.675Z,24.50
2018-08-09T05:51:43.886Z,24.80
2018-08-09T05:54:12.859Z,24.90
2018-08-09T05:56:41.815Z,25.00
2018-08-09T05:59:11.059Z,25.00
2018-08-09T06:01:40.377Z,25.30
2018-08-09T06:04:09.918Z,25.20
2018-08-09T06:06:39.165Z,25.10
2018-08-09T06:09:11.054Z,25.60
2018-08-09T06:11:40.256Z,25.60
2018-08-09T06:14:15.874Z,25.70
2018-08-09T06:16:45.217Z,26.10
2018-08-09T06:19:14.584Z,26.00
2018-08-09T06:21:43.820Z,26.40
2018-08-09T06:27:11.276Z,26.60
2018-08-09T06:29:40.618Z,26.40
2018-08-09T06:32:09.836Z,26.90
2018-08-09T06:34:39.146Z,26.60
2018-08-09T06:37:08.201Z,27.00
2018-08-09T06:39:37.498Z,27.20
2018-08-09T06:42:06.824Z,27.30
2018-08-09T06:44:36.090Z,27.40
2018-08-09T06:47:05.428Z,27.00
2018-08-09T06:49:34.724Z,26.80
2018-08-09T06:52:03.962Z,27.30
2018-08-09T06:54:33.141Z,27.50
2018-08-09T06:57:02.313Z,27.40
2018-08-09T06:59:31.248Z,27.80
2018-08-09T07:02:00.519Z,27.80
2018-08-09T07:04:29.447Z,28.30
2018-08-09T07:06:59.828Z,28.40
2018-08-09T07:09:29.148Z,28.30
2018-08-09T07:11:58.467Z,28.70
2018-08-09T07:14:27.438Z,28.60
2018-08-09T07:16:56.424Z,28.70
2018-08-09T07:19:25.415Z,28.80
2018-08-09T07:21:54.655Z,28.70
2018-08-09T07:24:23.850Z,28.80
2018-08-09T07:26:53.060Z,28.80
2018-08-09T07:29:22.392Z,29.00
2018-08-09T07:31:51.603Z,29.10
2018-08-09T07:34:20.810Z,29.10
2018-08-09T07:36:50.051Z,29.00
2018-08-09T07:39:19.382Z,29.10
2018-08-09T07:41:48.597Z,29.10
2018-08-09T07:44:17.616Z,29.30
2018-08-09T07:46:46.792Z,29.50
2018-08-09T07:49:16.060Z,29.50
2018-08-09T07:51:45.293Z,29.50
2018-08-09T07:54:14.562Z,29.40
2018-08-09T07:56:43.641Z,29.30
2018-08-09T07:59:12.917Z,29.40
2018-08-09T08:01:41.935Z,29.20
2018-08-09T08:04:11.188Z,29.70
2018-08-09T08:06:40.412Z,29.70
2018-08-09T08:09:11.569Z,30.00
2018-08-09T08:11:40.807Z,29.80
2018-08-09T08:14:10.154Z,29.50
2018-08-09T08:16:39.355Z,30.00
2018-08-09T08:19:08.590Z,29.70
2018-08-09T08:21:37.875Z,29.20
2018-08-09T08:24:07.814Z,29.30
2018-08-09T08:26:37.529Z,29.50
2018-08-09T08:29:06.827Z,29.60
2018-08-09T08:31:36.090Z,29.50
2018-08-09T08:34:05.656Z,29.80
2018-08-09T08:36:34.699Z,29.90
2018-08-09T08:39:06.111Z,29.40
2018-08-09T08:41:35.554Z,29.70
2018-08-09T08:44:04.837Z,30.00
2018-08-09T08:46:34.102Z,29.80
2018-08-09T08:49:03.412Z,29.90
2018-08-09T08:51:32.366Z,30.00
2018-08-09T08:54:01.685Z,30.40
2018-08-09T08:56:37.472Z,30.40
2018-08-09T08:59:06.796Z,30.50
2018-08-09T09:01:36.030Z,30.70
2018-08-09T09:04:05.362Z,30.80
2018-08-09T09:06:34.449Z,31.10
2018-08-09T09:09:04.637Z,30.30
2018-08-09T09:11:33.862Z,30.30
2018-08-09T09:14:09.771Z,30.90
2018-08-09T09:16:38.757Z,30.70
2018-08-09T09:19:08.314Z,30.40
2018-08-09T09:21:37.574Z,30.80
2018-08-09T09:24:06.933Z,30.60
2018-08-09T09:26:36.441Z,30.60
2018-08-09T09:29:05.684Z,30.60
2018-08-09T09:31:34.875Z,30.50
2018-08-09T09:34:04.205Z,30.70
2018-08-09T09:36:33.225Z,30.80
2018-08-09T09:39:02.233Z,30.40
2018-08-09T09:41:31.686Z,30.50
2018-08-09T09:44:01.013Z,30.60
2018-08-09T09:46:30.276Z,30.80
2018-08-09T09:48:59.537Z,30.90
2018-08-09T09:51:28.812Z,30.60
2018-08-09T09:53:58.275Z,30.40
2018-08-09T09:56:27.550Z,30.40
2018-08-09T09:58:56.838Z,30.40
2018-08-09T10:01:31.468Z,30.50
2018-08-09T10:04:00.530Z,30.70
2018-08-09T10:06:29.783Z,30.60
2018-08-09T10:08:58.809Z,30.50
2018-08-09T10:11:28.058Z,30.60
2018-08-09T10:13:57.318Z,30.60
2018-08-09T10:16:26.619Z,30.70
2018-08-09T10:18:55.942Z,30.80
2018-08-09T10:21:25.221Z,30.70
2018-08-09T10:23:54.505Z,31.10
2018-08-09T10:26:23.736Z,30.90
2018-08-09T10:28:52.782Z,31.10
2018-08-09T10:31:22.095Z,31.10
2018-08-09T10:33:51.300Z,31.10
2018-08-09T10:36:20.313Z,31.30
2018-08-09T10:38:49.557Z,31.50
2018-08-09T10:41:18.802Z,31.40
2018-08-09T10:43:47.788Z,31.40
2018-08-09T10:46:16.794Z,31.40
2018-08-09T10:48:46.017Z,31.50
2018-08-09T10:51:15.248Z,31.80
2018-08-09T10:53:44.437Z,31.80
2018-08-09T10:56:13.624Z,31.80
2018-08-09T10:58:42.661Z,31.70
2018-08-09T11:01:11.960Z,31.90
2018-08-09T11:03:41.308Z,32.00
2018-08-09T11:06:10.565Z,32.00
2018-08-09T11:08:40.254Z,31.90
2018-08-09T11:11:13.221Z,32.00
2018-08-09T11:13:45.046Z,32.10
2018-08-09T11:16:15.170Z,32.30
2018-08-09T11:18:45.183Z,32.40
2018-08-09T11:21:15.042Z,32.50
2018-08-09T11:23:44.304Z,32.60
2018-08-09T11:26:13.554Z,32.50
2018-08-09T11:28:42.825Z,32.60
2018-08-09T11:31:12.109Z,32.50
2018-08-09T11:33:41.345Z,32.60
2018-08-09T11:36:10.582Z,32.70
2018-08-09T11:38:39.870Z,32.80
2018-08-09T11:41:09.189Z,32.70
2018-08-09T11:43:38.693Z,33.00
2018-08-09T11:46:07.974Z,33.00
2018-08-09T11:48:37.229Z,33.20
2018-08-09T11:51:06.849Z,33.30
2018-08-09T11:53:35.823Z,33.20
2018-08-09T11:56:05.081Z,33.10
2018-08-09T11:58:34.036Z,33.20
2018-08-09T12:01:03.299Z,33.30
2018-08-09T12:03:32.550Z,33.40
2018-08-09T12:06:01.577Z,33.60
2018-08-09T12:08:30.781Z,33.40
2018-08-09T12:11:00.118Z,33.60
2018-08-09T12:13:29.412Z,33.90
2018-08-09T12:15:58.737Z,34.00
2018-08-09T12:18:27.969Z,33.70
2018-08-09T12:20:57.233Z,33.90
2018-08-09T12:23:26.466Z,34.00
2018-08-09T12:25:55.732Z,34.00
2018-08-09T12:28:24.794Z,34.00
2018-08-09T12:30:54.055Z,33.90
2018-08-09T12:33:23.316Z,33.80
2018-08-09T12:35:52.266Z,33.90
2018-08-09T12:38:21.514Z,33.70
2018-08-09T12:40:50.786Z,33.90
2018-08-09T12:43:20.017Z,34.00
2018-08-09T12:45:49.238Z,34.10
2018-08-09T12:48:18.440Z,34.00
2018-08-09T12:50:47.656Z,34.00
2018-08-09T12:53:16.886Z,33.70
2018-08-09T12:55:46.154Z,33.80
2018-08-09T12:58:15.152Z,33.90
2018-08-09T13:00:44.385Z,33.80
2018-08-09T13:03:13.637Z,34.10
2018-08-09T13:05:42.909Z,34.00
2018-08-09T13:08:12.234Z,34.20
2018-08-09T13:10:41.429Z,34.20
2018-08-09T13:13:10.697Z,34.00
2018-08-09T13:15:39.931Z,34.40
2018-08-09T13:18:09.149Z,34.40
2018-08-09T13:20:38.128Z,34.40
2018-08-09T13:23:07.418Z,34.20
2018-08-09T13:25:36.665Z,34.50
2018-08-09T13:28:05.948Z,34.40
2018-08-09T13:30:35.211Z,34.50
2018-08-09T13:33:04.300Z,34.70
2018-08-09T13:35:33.492Z,34.80
2018-08-09T13:38:02.784Z,34.50
2018-08-09T13:40:32.035Z,34.50
2018-08-09T13:43:01.466Z,34.50
2018-08-09T13:45:30.740Z,34.40
2018-08-09T13:47:59.930Z,34.70
2018-08-09T13:50:29.163Z,34.50
2018-08-09T13:52:58.423Z,34.50
2018-08-09T13:55:27.649Z,34.60
2018-08-09T13:57:56.904Z,34.50
2018-08-09T14:00:26.105Z,34.50
2018-08-09T14:02:55.313Z,34.50
2018-08-09T14:05:24.316Z,34.40
2018-08-09T14:07:53.565Z,34.50
2018-08-09T14:10:22.774Z,34.60
2018-08-09T14:12:52.001Z,34.40
2018-08-09T14:15:21.244Z,34.40
2018-08-09T14:17:50.506Z,34.20
2018-08-09T14:20:19.778Z,34.60
2018-08-09T14:22:49.144Z,34.40
2018-08-09T14:25:18.461Z,34.20
2018-08-09T14:27:47.933Z,34.10
2018-08-09T14:30:17.185Z,33.90
2018-08-09T14:32:46.478Z,33.80
2018-08-09T14:35:16.777Z,33.70
2018-08-09T14:37:46.716Z,33.80
2018-08-09T14:40:16.850Z,33.80
2018-08-09T14:42:46.081Z,33.80
2018-08-09T14:45:16.321Z,33.80
2018-08-09T14:47:45.297Z,33.90
2018-08-09T14:50:14.537Z,33.80
2018-08-09T14:52:43.797Z,33.90
2018-08-09T14:55:13.817Z,34.00
2018-08-09T14:57:43.543Z,34.00
2018-08-09T15:00:17.415Z,33.90
2018-08-09T15:02:46.878Z,34.00
2018-08-09T15:05:16.757Z,34.00
2018-08-09T15:07:46.025Z,34.10
2018-08-09T15:10:16.508Z,34.00
2018-08-09T15:12:45.829Z,34.10
2018-08-09T15:15:15.242Z,34.00
2018-08-09T15:17:44.517Z,34.20
2018-08-09T15:20:14.381Z,34.30
2018-08-09T15:22:43.714Z,34.10
2018-08-09T15:25:12.970Z,34.10
2018-08-09T15:27:41.976Z,34.00
2018-08-09T15:30:18.138Z,34.00
2018-08-09T15:32:47.782Z,33.90
2018-08-09T15:35:17.178Z,34.00
2018-08-09T15:37:46.228Z,34.10
2018-08-09T15:40:15.870Z,34.10
2018-08-09T15:42:45.139Z,34.20
2018-08-09T15:45:15.920Z,34.20
2018-08-09T15:47:45.218Z,34.00
2018-08-09T15:50:18.204Z,34.10
2018-08-09T15:52:47.516Z,34.10
2018-08-09T15:55:18.124Z,34.30
2018-08-09T15:57:47.863Z,34.30
2018-08-09T16:00:19.834Z,34.10
2018-08-09T16:02:49.209Z,34.10
2018-08-09T16:05:18.326Z,34.00
2018-08-09T16:07:47.733Z,34.00
2018-08-09T16:10:17.906Z,33.90
2018-08-09T16:12:47.519Z,34.00
2018-08-09T16:15:17.921Z,33.80
2018-08-09T16:17:47.979Z,33.70
2018-08-09T16:20:17.246Z,33.60
2018-08-09T16:22:46.797Z,33.40
2018-08-09T16:25:18.164Z,33.40
2018-08-09T16:27:49.063Z,33.60
2018-08-09T16:30:21.268Z,33.70
2018-08-09T16:32:50.335Z,33.60
2018-08-09T16:35:19.407Z,33.60
2018-08-09T16:37:48.965Z,33.60
2018-08-09T16:40:22.204Z,33.50
2018-08-09T16:42:51.466Z,33.20
2018-08-09T16:45:21.528Z,33.20
2018-08-09T16:47:51.393Z,33.20
2018-08-09T16:50:21.833Z,33.30
2018-08-09T16:52:51.880Z,33.40
2018-08-09T16:55:22.666Z,33.40
2018-08-09T16:57:52.773Z,33.40
2018-08-09T17:00:23.856Z,33.30
2018-08-09T17:02:54.576Z,33.40
2018-08-09T17:05:25.449Z,33.40
2018-08-09T17:07:54.875Z,33.30
2018-08-09T17:10:25.335Z,33.10
2018-08-09T17:12:54.644Z,32.80
2018-08-09T17:15:26.524Z,32.50
2018-08-09T17:17:56.600Z,31.50
2018-08-09T17:20:29.645Z,30.60
2018-08-09T17:22:58.895Z,29.20
2018-08-09T17:25:28.352Z,28.00
2018-08-09T17:27:57.385Z,27.20
2018-08-09T17:30:27.415Z,26.70
2018-08-09T17:32:57.179Z,26.40
2018-08-09T17:35:26.526Z,26.30
2018-08-09T17:37:56.062Z,26.20
2018-08-09T17:40:27.428Z,26.20
2018-08-09T17:42:57.576Z,26.10
2018-08-09T17:45:28.118Z,26.10
2018-08-09T17:47:57.134Z,26.20
2018-08-09T17:50:26.501Z,26.20
2018-08-09T17:52:58.017Z,26.20
2018-08-09T17:55:27.251Z,26.00
2018-08-09T17:57:56.488Z,25.80
2018-08-09T18:00:27.188Z,25.70
2018-08-09T18:02:56.595Z,25.40
2018-08-09T18:05:25.618Z,25.20
2018-08-09T18:07:55.735Z,25.10
2018-08-09T18:10:28.196Z,24.90
2018-08-09T18:12:57.442Z,24.80
2018-08-09T18:15:27.566Z,24.80
2018-08-09T18:17:57.199Z,24.40
2018-08-09T18:20:28.157Z,23.90
2018-08-09T18:22:57.783Z,23.60
2018-08-09T18:25:27.121Z,23.40
2018-08-09T18:27:57.056Z,23.10
2018-08-09T18:30:26.276Z,22.90
2018-08-09T18:32:55.558Z,22.80
2018-08-09T18:35:24.815Z,22.80
2018-08-09T18:37:54.097Z,22.80
2018-08-09T18:40:25.833Z,22.90
2018-08-09T18:42:55.097Z,22.80
2018-08-09T18:45:24.479Z,22.80
2018-08-09T18:47:53.713Z,22.90
2018-08-09T18:50:24.715Z,22.90
2018-08-09T18:52:53.767Z,23.00
2018-08-09T18:55:23.011Z,23.00
2018-08-09T18:57:52.503Z,22.90
2018-08-09T19:00:24.875Z,22.90
2018-08-09T19:02:54.407Z,22.90
2018-08-09T19:05:24.504Z,22.90
2018-08-09T19:07:53.924Z,22.90
2018-08-09T19:10:26.079Z,22.90
2018-08-09T19:12:55.395Z,22.90
2018-08-09T19:15:25.305Z,22.80
2018-08-09T19:17:54.817Z,22.90
2018-08-09T19:20:27.332Z,22.90
2018-08-09T19:22:57.156Z,22.90
2018-08-09T19:25:26.484Z,22.90
2018-08-09T19:27:55.823Z,22.90
2018-08-09T19:30:27.035Z,22.80
2018-08-09T19:32:56.286Z,22.80
2018-08-09T19:35:25.586Z,22.80
2018-08-09T19:37:55.306Z,22.80
2018-08-09T19:40:27.549Z,22.80
2018-08-09T19:42:56.868Z,22.90
2018-08-09T19:45:26.540Z,22.80
2018-08-09T19:47:56.029Z,22.90
2018-08-09T19:50:26.208Z,22.90
2018-08-09T19:52:57.063Z,22.90
2018-08-09T19:55:27.591Z,22.90
2018-08-09T19:57:57.166Z,22.90
2018-08-09T20:00:28.660Z,23.00
2018-08-09T20:02:58.404Z,23.00
2018-08-09T20:05:38.514Z,23.00
2018-08-09T20:08:07.902Z,23.00
2018-08-09T20:10:37.467Z,22.90
2018-08-09T20:13:06.956Z,22.90
2018-08-09T20:15:36.656Z,22.90
2018-08-09T20:18:06.228Z,22.90
2018-08-09T20:20:36.033Z,22.80
2018-08-09T20:23:05.593Z,22.80
2018-08-09T20:25:34.662Z,22.90
2018-08-09T20:28:03.919Z,22.90
2018-08-09T20:30:33.180Z,22.80
2018-08-09T20:33:03.444Z,22.70
2018-08-09T20:35:32.664Z,22.70
2018-08-09T20:38:02.306Z,22.70
2018-08-09T20:40:31.763Z,22.60
2018-08-09T20:43:02.832Z,22.70
2018-08-09T20:45:32.604Z,22.60
2018-08-09T20:48:04.322Z,22.50
2018-08-09T20:50:34.653Z,22.50
2018-08-09T20:53:03.773Z,22.50
2018-08-09T20:55:33.369Z,22.40
2018-08-09T20:58:02.975Z,22.40
2018-08-09T21:00:33.797Z,22.40
2018-08-09T21:03:03.586Z,22.40
2018-08-09T21:05:34.532Z,22.40
2018-08-09T21:08:03.795Z,22.40
2018-08-09T21:10:33.688Z,22.30
2018-08-09T21:13:02.910Z,22.30
2018-08-09T21:15:32.492Z,22.30
2018-08-09T21:18:01.595Z,22.30
2018-08-09T21:20:31.113Z,22.30
2018-08-09T21:23:00.756Z,22.30
2018-08-09T21:25:29.912Z,22.30
2018-08-09T21:27:59.701Z,22.20
2018-08-09T21:30:29.384Z,22.20
2018-08-09T21:32:58.818Z,22.20
2018-08-09T21:35:28.313Z,22.20
2018-08-09T21:37:57.635Z,22.10
2018-08-09T21:40:27.059Z,22.00
2018-08-09T21:42:57.217Z,21.90
2018-08-09T21:45:26.349Z,21.90
2018-08-09T21:47:56.210Z,21.80
2018-08-09T21:50:25.324Z,21.80
2018-08-09T21:53:01.265Z,21.70
2018-08-09T21:55:30.704Z,21.60
2018-08-09T21:58:00.216Z,21.70
2018-08-09T22:01:06.744Z,21.70
2018-08-09T22:03:38.338Z,21.60
2018-08-09T22:06:12.827Z,21.60
2018-08-09T22:09:47.856Z,21.60
2018-08-09T22:12:22.386Z,21.60
2018-08-09T22:14:57.008Z,21.50
2018-08-09T22:17:31.553Z,21.50
2018-08-09T22:20:06.156Z,21.50
2018-08-09T22:22:37.559Z,21.50
2018-08-09T22:25:14.126Z,21.50
2018-08-09T22:27:43.486Z,21.40
2018-08-09T22:30:14.640Z,21.50
2018-08-09T22:32:43.996Z,21.40
2018-08-09T22:35:13.168Z,21.50
2018-08-09T22:37:42.247Z,21.50
2018-08-09T22:40:11.637Z,21.40
2018-08-09T22:42:41.033Z,21.50
2018-08-09T22:45:10.530Z,21.40
2018-08-09T22:47:39.592Z,21.40
2018-08-09T22:50:09.149Z,21.40
2018-08-09T22:52:39.483Z,21.40
2018-08-09T22:55:08.641Z,21.40
2018-08-09T22:57:37.722Z,21.40
2018-08-09T23:00:12.187Z,21.30
2018-08-09T23:02:41.627Z,21.20
2018-08-09T23:05:11.086Z,21.20
2018-08-09T23:07:40.750Z,21.20
2018-08-09T23:10:10.156Z,21.20
2018-08-09T23:12:39.527Z,21.10
2018-08-09T23:15:09.581Z,21.10
2018-08-09T23:17:39.200Z,21.10
2018-08-09T23:20:09.491Z,21.10
2018-08-09T23:22:38.888Z,21.10
2018-08-09T23:25:12.680Z,21.20
2018-08-09T23:42:22.680Z,21.30
2018-08-09T23:44:52.126Z,21.40
2018-08-09T23:47:21.538Z,21.40
2018-08-09T23:49:50.896Z,21.40
2018-08-09T23:52:20.010Z,21.50
2018-08-09T23:54:49.409Z,21.40
2018-08-09T23:57:18.847Z,21.40
2018-08-09T23:59:48.215Z,21.40
